createdAt,value
2019-01-11T00:01:23.289Z,12.17
2019-01-11T00:03:50.878Z,11.43
2019-01-11T00:06:18.671Z,13.33
2019-01-11T00:08:46.178Z,13.20
2019-01-11T00:11:13.902Z,12.73
2019-01-11T00:13:42.111Z,12.13
2019-01-11T00:16:10.085Z,11.07
2019-01-11T00:18:37.568Z,16.03
2019-01-11T00:21:05.356Z,12.33
2019-01-11T00:23:33.440Z,14.43
2019-01-11T00:26:01.302Z,12.53
2019-01-11T00:28:28.762Z,14.53
2019-01-11T00:30:56.945Z,12.70
2019-01-11T00:33:24.453Z,13.53
2019-01-11T00:35:52.274Z,11.27
2019-01-11T00:38:20.027Z,12.47
2019-01-11T00:40:48.231Z,12.20
2019-01-11T00:43:15.733Z,9.47
2019-01-11T00:45:43.170Z,15.37
2019-01-11T00:48:10.955Z,18.83
2019-01-11T00:50:38.799Z,10.17
2019-01-11T00:53:06.250Z,11.30
2019-01-11T00:55:33.793Z,13.30
2019-01-11T00:58:01.265Z,10.27
2019-01-11T01:00:28.913Z,11.17
2019-01-11T01:02:56.680Z,12.50
2019-01-11T01:05:25.054Z,12.80
2019-01-11T01:07:52.616Z,13.20
2019-01-11T01:10:20.991Z,11.13
2019-01-11T01:12:48.752Z,13.43
2019-01-11T01:15:16.750Z,10.30
2019-01-11T01:17:44.221Z,12.70
2019-01-11T01:20:12.295Z,10.80
2019-01-11T01:22:39.791Z,12.90
2019-01-11T01:25:08.932Z,13.03
2019-01-11T01:27:37.182Z,11.17
2019-01-11T01:30:07.995Z,12.37
2019-01-11T01:32:35.453Z,12.37
2019-01-11T01:35:03.375Z,11.90
2019-01-11T01:37:32.614Z,11.97
2019-01-11T01:40:00.853Z,12.80
2019-01-11T01:42:28.988Z,9.43
2019-01-11T01:44:56.442Z,11.37
2019-01-11T01:47:23.912Z,13.40
2019-01-11T01:49:51.641Z,9.23
2019-01-11T01:52:19.260Z,13.43
2019-01-11T01:54:47.683Z,10.80
2019-01-11T01:57:15.454Z,9.23
2019-01-11T01:59:42.974Z,8.73
2019-01-11T02:02:11.007Z,9.57
2019-01-11T02:04:38.475Z,9.67
2019-01-11T02:07:05.923Z,12.50
2019-01-11T02:09:33.736Z,9.03
2019-01-11T02:12:01.198Z,8.37
2019-01-11T02:14:28.968Z,13.13
2019-01-11T02:16:57.527Z,9.80
2019-01-11T02:19:25.038Z,12.80
2019-01-11T02:21:52.890Z,8.37
2019-01-11T02:24:20.972Z,9.27
2019-01-11T02:26:48.435Z,11.17
2019-01-11T02:29:16.329Z,11.00
2019-01-11T02:31:43.825Z,9.87
2019-01-11T02:34:11.334Z,8.93
2019-01-11T02:36:38.807Z,8.30
2019-01-11T02:39:06.895Z,10.67
2019-01-11T02:41:34.665Z,9.30
2019-01-11T02:44:02.670Z,12.50
2019-01-11T02:46:30.148Z,9.73
2019-01-11T02:48:57.616Z,10.53
2019-01-11T02:51:25.836Z,10.17
2019-01-11T02:53:53.354Z,12.33
2019-01-11T02:56:21.383Z,9.27
2019-01-11T02:58:48.847Z,7.27
2019-01-11T03:01:16.439Z,8.50
2019-01-11T03:03:44.269Z,9.90
2019-01-11T03:06:11.712Z,7.97
2019-01-11T03:08:39.262Z,10.73
2019-01-11T03:11:07.065Z,9.10
2019-01-11T03:13:34.580Z,10.53
2019-01-11T03:16:02.076Z,10.37
2019-01-11T03:18:29.522Z,10.03
2019-01-11T03:20:57.375Z,9.73
2019-01-11T03:23:24.870Z,9.10
2019-01-11T03:25:52.380Z,9.33
2019-01-11T03:28:20.099Z,13.53
2019-01-11T03:30:47.648Z,16.20
2019-01-11T03:33:15.464Z,8.17
2019-01-11T03:35:44.602Z,8.33
2019-01-11T03:38:12.093Z,8.07
2019-01-11T03:40:39.766Z,8.93
2019-01-11T03:43:07.254Z,8.90
2019-01-11T03:45:34.731Z,13.00
2019-01-11T03:48:02.540Z,9.17
2019-01-11T03:50:30.286Z,10.07
2019-01-11T03:52:58.140Z,7.67
2019-01-11T03:55:25.987Z,10.23
2019-01-11T03:57:53.804Z,8.53
2019-01-11T04:00:24.180Z,10.93
2019-01-11T04:02:52.040Z,9.93
2019-01-11T04:05:20.119Z,10.20
2019-01-11T04:07:47.643Z,8.37
2019-01-11T04:10:17.248Z,10.50
2019-01-11T04:12:44.714Z,13.13
2019-01-11T04:15:12.943Z,10.17
2019-01-11T04:17:40.434Z,11.87
2019-01-11T04:20:11.959Z,12.27
2019-01-11T04:22:45.578Z,11.80
2019-01-11T04:25:18.705Z,9.20
2019-01-11T04:27:46.306Z,10.90
2019-01-11T04:30:16.787Z,9.93
2019-01-11T04:32:44.417Z,10.40
2019-01-11T04:35:12.804Z,10.53
2019-01-11T04:37:40.823Z,13.07
2019-01-11T04:40:09.611Z,12.23
2019-01-11T04:42:37.653Z,15.43
2019-01-11T04:45:06.901Z,14.00
2019-01-11T04:47:34.632Z,13.33
2019-01-11T04:50:09.156Z,11.00
2019-01-11T04:52:32.152Z,13.00
2019-01-11T04:54:59.602Z,9.90
2019-01-11T04:57:27.462Z,12.67
2019-01-11T04:59:54.898Z,15.53
2019-01-11T05:02:23.057Z,16.23
2019-01-11T05:04:50.550Z,14.57
2019-01-11T05:07:19.205Z,17.20
2019-01-11T05:09:47.018Z,19.27
2019-01-11T05:12:14.866Z,20.87
2019-01-11T05:14:42.298Z,17.87
2019-01-11T05:17:09.803Z,20.97
2019-01-11T05:19:37.388Z,16.20
2019-01-11T05:22:04.969Z,15.80
2019-01-11T05:24:32.586Z,19.30
2019-01-11T05:27:00.058Z,19.20
2019-01-11T05:29:27.930Z,19.10
2019-01-11T05:31:55.465Z,20.33
2019-01-11T05:34:22.927Z,16.97
2019-01-11T05:36:50.761Z,16.97
2019-01-11T05:39:18.239Z,16.83
2019-01-11T05:41:45.731Z,18.33
2019-01-11T05:44:13.231Z,20.23
2019-01-11T05:46:40.750Z,17.80
2019-01-11T05:49:08.222Z,17.73
2019-01-11T05:51:36.099Z,16.93
2019-01-11T05:54:03.873Z,21.87
2019-01-11T05:56:31.335Z,17.97
2019-01-11T05:59:04.697Z,18.53
2019-01-11T06:01:33.138Z,17.33
2019-01-11T06:04:02.891Z,17.80
2019-01-11T06:06:50.156Z,16.13
2019-01-11T06:09:17.643Z,17.53
2019-01-11T06:11:45.425Z,24.93
2019-01-11T06:14:13.280Z,16.53
2019-01-11T06:16:41.091Z,21.03
2019-01-11T06:19:08.639Z,15.70
2019-01-11T06:21:36.362Z,17.30
2019-01-11T06:24:03.913Z,21.90
2019-01-11T06:26:31.724Z,19.07
2019-01-11T06:28:59.202Z,19.40
2019-01-11T06:31:26.991Z,19.33
2019-01-11T06:33:54.458Z,21.53
2019-01-11T06:36:22.290Z,18.17
2019-01-11T06:38:49.897Z,20.50
2019-01-11T06:41:17.765Z,19.93
2019-01-11T06:43:47.426Z,17.37
2019-01-11T06:46:15.207Z,19.77
2019-01-11T06:48:42.679Z,20.33
2019-01-11T06:51:10.509Z,19.37
2019-01-11T06:53:38.676Z,18.40
2019-01-11T06:56:06.186Z,19.80
2019-01-11T06:58:33.697Z,16.30
2019-01-11T07:01:01.178Z,21.57
2019-01-11T07:03:28.786Z,20.07
2019-01-11T07:05:56.277Z,21.77
2019-01-11T07:08:24.187Z,20.97
2019-01-11T07:10:51.930Z,16.30
2019-01-11T07:13:19.750Z,19.50
2019-01-11T07:15:47.542Z,14.97
2019-01-11T07:18:15.004Z,21.33
2019-01-11T07:20:44.524Z,18.33
2019-01-11T07:23:12.634Z,20.50
2019-01-11T07:25:40.145Z,16.17
2019-01-11T07:28:13.546Z,18.90
2019-01-11T07:31:11.989Z,17.57
2019-01-11T07:33:39.785Z,17.73
2019-01-11T07:36:32.576Z,16.83
2019-01-11T07:39:00.054Z,16.43
2019-01-11T07:41:28.316Z,26.93
2019-01-11T07:43:57.111Z,20.27
2019-01-11T07:46:25.186Z,17.93
2019-01-11T07:48:53.639Z,25.87
2019-01-11T07:51:21.086Z,22.40
2019-01-11T07:53:48.585Z,18.97
2019-01-11T07:56:16.081Z,25.63
2019-01-11T07:58:43.522Z,29.17
2019-01-11T08:01:12.064Z,22.93
2019-01-11T08:03:39.952Z,23.40
2019-01-11T08:06:07.739Z,28.87
2019-01-11T08:08:35.447Z,26.13
2019-01-11T08:11:03.050Z,21.83
2019-01-11T08:13:30.494Z,27.83
2019-01-11T08:15:58.099Z,28.73
2019-01-11T08:18:26.013Z,26.03
2019-01-11T08:20:56.390Z,24.93
2019-01-11T08:23:23.502Z,27.60
2019-01-11T08:25:51.648Z,28.23
2019-01-11T08:28:19.921Z,30.80
2019-01-11T08:30:47.664Z,31.07
2019-01-11T08:33:18.685Z,28.83
2019-01-11T08:35:45.410Z,35.43
2019-01-11T08:38:13.257Z,27.90
2019-01-11T08:40:41.122Z,30.80
2019-01-11T08:43:08.834Z,25.73
2019-01-11T08:45:36.701Z,27.30
2019-01-11T08:48:04.566Z,27.50
2019-01-11T08:50:32.549Z,27.77
2019-01-11T08:53:00.520Z,27.60
2019-01-11T08:55:29.267Z,30.03
2019-01-11T08:57:56.851Z,26.40
2019-01-11T09:00:24.637Z,27.53
2019-01-11T09:02:52.555Z,26.67
2019-01-11T09:05:20.543Z,28.23
2019-01-11T09:07:47.982Z,35.90
2019-01-11T09:10:22.436Z,32.10
2019-01-11T09:12:45.598Z,24.23
2019-01-11T09:15:13.208Z,29.10
2019-01-11T09:18:00.946Z,29.10
2019-01-11T09:20:28.396Z,30.40
2019-01-11T09:22:56.437Z,28.03
2019-01-11T09:25:24.166Z,30.50
2019-01-11T09:27:51.743Z,33.93
2019-01-11T09:30:19.506Z,34.17
2019-01-11T09:32:47.989Z,32.67
2019-01-11T09:35:15.863Z,34.37
2019-01-11T09:37:43.493Z,39.23
2019-01-11T09:40:11.535Z,42.97
2019-01-11T09:42:39.516Z,36.13
2019-01-11T09:45:07.704Z,36.37
2019-01-11T09:47:35.622Z,40.83
2019-01-11T09:50:04.939Z,39.80
2019-01-11T09:52:33.440Z,42.07
2019-01-11T09:55:01.038Z,40.37
2019-01-11T09:57:30.134Z,44.53
2019-01-11T10:00:00.785Z,50.23
2019-01-11T10:02:43.577Z,48.13
2019-01-11T10:05:12.090Z,44.53
2019-01-11T10:07:39.974Z,45.83
2019-01-11T10:10:27.329Z,43.53
2019-01-11T10:12:55.258Z,49.17
2019-01-11T10:15:22.887Z,46.37
2019-01-11T10:17:51.092Z,41.57
2019-01-11T10:20:19.638Z,42.53
2019-01-11T10:22:47.274Z,46.13
2019-01-11T10:25:15.470Z,41.97
2019-01-11T10:27:43.503Z,45.80
2019-01-11T10:30:14.216Z,43.93
2019-01-11T10:32:41.787Z,40.37
2019-01-11T10:35:10.307Z,44.23
2019-01-11T10:37:38.287Z,39.30
2019-01-11T10:40:07.205Z,37.67
2019-01-11T10:42:34.842Z,43.70
2019-01-11T10:45:02.702Z,42.43
2019-01-11T10:47:30.439Z,41.77
2019-01-11T10:49:58.311Z,46.50
2019-01-11T10:52:26.930Z,39.30
2019-01-11T10:54:54.702Z,40.93
2019-01-11T10:57:23.288Z,40.17
2019-01-11T10:59:50.793Z,40.43
2019-01-11T11:02:18.805Z,41.10
2019-01-11T11:04:46.239Z,40.67
2019-01-11T11:07:14.177Z,40.93
2019-01-11T11:09:41.773Z,39.50
2019-01-11T11:12:09.525Z,43.60
2019-01-11T11:14:37.238Z,40.53
2019-01-11T11:17:05.371Z,43.87
2019-01-11T11:19:34.564Z,41.73
2019-01-11T11:22:02.513Z,52.47
2019-01-11T11:24:30.887Z,44.20
2019-01-11T11:26:58.883Z,43.27
2019-01-11T11:29:26.657Z,41.77
2019-01-11T11:31:54.265Z,45.17
2019-01-11T11:34:28.110Z,40.17
2019-01-11T11:36:56.718Z,42.43
2019-01-11T11:39:24.679Z,44.23
2019-01-11T11:41:52.642Z,48.23
2019-01-11T11:44:20.192Z,51.20
2019-01-11T11:46:48.048Z,51.50
2019-01-11T11:49:16.517Z,48.50
2019-01-11T11:51:44.812Z,51.43
2019-01-11T11:54:12.885Z,44.43
2019-01-11T11:56:41.289Z,47.00
2019-01-11T11:59:08.902Z,47.53
2019-01-11T12:01:37.047Z,51.87
2019-01-11T12:04:04.520Z,42.10
2019-01-11T12:06:32.399Z,43.13
2019-01-11T12:09:00.738Z,44.70
2019-01-11T12:11:28.537Z,45.43
2019-01-11T12:13:56.584Z,43.90
2019-01-11T12:16:25.089Z,46.73
2019-01-11T12:18:53.166Z,46.03
2019-01-11T12:21:21.256Z,46.20
2019-01-11T12:23:49.522Z,51.57
2019-01-11T12:26:17.392Z,44.87
2019-01-11T12:28:44.957Z,43.03
2019-01-11T12:31:12.703Z,38.77
2019-01-11T12:33:40.562Z,36.87
2019-01-11T12:36:08.612Z,41.17
2019-01-11T12:38:36.517Z,45.27
2019-01-11T12:41:04.794Z,48.07
2019-01-11T12:43:32.646Z,41.30
2019-01-11T12:46:01.005Z,38.53
2019-01-11T12:48:28.842Z,44.30
2019-01-11T12:50:57.052Z,39.50
2019-01-11T12:53:24.923Z,34.70
2019-01-11T12:55:53.039Z,37.20
2019-01-11T12:58:21.262Z,40.07
2019-01-11T13:00:49.053Z,38.27
2019-01-11T13:03:17.033Z,36.93
2019-01-11T13:05:45.198Z,40.17
2019-01-11T13:08:13.034Z,37.30
2019-01-11T13:10:40.797Z,40.90
2019-01-11T13:13:13.188Z,42.27
2019-01-11T13:15:41.193Z,42.43
2019-01-11T13:18:08.972Z,37.67
2019-01-11T13:20:36.811Z,32.67
2019-01-11T13:23:04.667Z,36.40
2019-01-11T13:25:33.609Z,39.87
2019-01-11T13:28:01.452Z,38.80
2019-01-11T13:30:29.266Z,31.67
2019-01-11T13:32:57.478Z,37.77
2019-01-11T13:35:25.273Z,38.23
2019-01-11T13:37:53.486Z,36.53
2019-01-11T13:40:23.634Z,34.53
2019-01-11T13:42:51.819Z,31.30
2019-01-11T13:45:19.646Z,36.73
2019-01-11T13:47:47.599Z,30.07
2019-01-11T13:50:46.899Z,40.03
2019-01-11T13:53:17.060Z,36.30
2019-01-11T13:55:45.120Z,34.13
2019-01-11T13:58:12.744Z,43.93
2019-01-11T14:00:41.203Z,33.33
2019-01-11T14:03:08.787Z,38.30
2019-01-11T14:05:36.207Z,35.33
2019-01-11T14:08:04.108Z,35.80
2019-01-11T14:10:31.578Z,28.40
2019-01-11T14:12:59.925Z,29.10
2019-01-11T14:15:27.972Z,31.47
2019-01-11T14:17:56.349Z,29.20
2019-01-11T14:20:24.388Z,27.27
2019-01-11T14:22:52.270Z,34.27
2019-01-11T14:25:19.989Z,28.27
2019-01-11T14:27:47.865Z,35.57
2019-01-11T14:30:19.931Z,29.30
2019-01-11T14:32:47.895Z,30.27
2019-01-11T14:35:15.618Z,33.93
2019-01-11T14:37:43.464Z,38.90
2019-01-11T14:40:13.090Z,29.93
2019-01-11T14:42:41.284Z,32.97
2019-01-11T14:45:10.954Z,28.77
2019-01-11T14:47:38.804Z,29.07
2019-01-11T14:50:09.693Z,30.33
2019-01-11T14:52:39.134Z,32.03
2019-01-11T14:55:07.340Z,32.17
2019-01-11T14:57:35.653Z,28.70
2019-01-11T15:00:06.270Z,31.07
2019-01-11T15:02:34.507Z,27.03
2019-01-11T15:05:06.036Z,32.43
2019-01-11T15:07:33.909Z,34.63
2019-01-11T15:10:01.819Z,29.40
2019-01-11T15:12:29.450Z,28.27
2019-01-11T15:14:57.597Z,33.03
2019-01-11T15:17:25.470Z,32.63
2019-01-11T15:19:52.986Z,28.23
2019-01-11T15:22:26.434Z,29.93
2019-01-11T15:24:52.281Z,31.17
2019-01-11T15:27:20.127Z,32.67
2019-01-11T15:29:47.999Z,31.20
2019-01-11T15:32:15.817Z,33.70
2019-01-11T15:34:45.169Z,31.13
2019-01-11T15:37:12.767Z,32.97
2019-01-11T15:39:41.193Z,31.97
2019-01-11T15:42:08.894Z,31.40
2019-01-11T15:44:36.613Z,36.57
2019-01-11T15:47:05.193Z,36.10
2019-01-11T15:49:33.254Z,35.57
2019-01-11T15:52:01.109Z,29.73
2019-01-11T15:54:29.731Z,30.63
2019-01-11T15:56:57.421Z,35.70
2019-01-11T15:59:25.275Z,34.63
2019-01-11T16:01:53.982Z,28.80
2019-01-11T16:04:21.981Z,33.10
2019-01-11T16:06:50.403Z,34.20
2019-01-11T16:09:54.890Z,33.83
2019-01-11T16:12:23.075Z,37.13
2019-01-11T16:14:56.809Z,34.90
2019-01-11T16:17:27.081Z,32.03
2019-01-11T16:19:55.630Z,32.83
2019-01-11T16:22:24.221Z,34.43
2019-01-11T16:24:54.031Z,31.80
2019-01-11T16:27:22.040Z,32.77
2019-01-11T16:29:50.001Z,32.97
2019-01-11T16:32:19.717Z,33.60
2019-01-11T16:34:47.845Z,33.87
2019-01-11T16:37:15.485Z,36.77
2019-01-11T16:39:44.097Z,33.70
2019-01-11T16:42:12.307Z,35.37
2019-01-11T16:44:40.186Z,30.87
2019-01-11T16:47:08.319Z,33.87
2019-01-11T16:49:36.063Z,32.43
2019-01-11T16:52:04.756Z,32.47
2019-01-11T16:54:33.533Z,31.20
2019-01-11T16:57:01.397Z,34.37
2019-01-11T16:59:29.133Z,34.90
2019-01-11T17:01:56.993Z,32.67
2019-01-11T17:04:25.342Z,35.67
2019-01-11T17:06:53.380Z,40.37
2019-01-11T17:09:22.430Z,31.40
2019-01-11T17:11:50.950Z,34.07
2019-01-11T17:14:18.715Z,31.87
2019-01-11T17:16:47.212Z,31.77
2019-01-11T17:19:15.304Z,36.63
2019-01-11T17:21:42.881Z,37.00
2019-01-11T17:24:11.139Z,34.83
2019-01-11T17:26:39.449Z,37.80
2019-01-11T17:29:07.570Z,37.27
2019-01-11T17:31:38.278Z,30.67
2019-01-11T17:34:06.871Z,32.70
2019-01-11T17:36:35.800Z,30.37
2019-01-11T17:39:06.739Z,31.87
2019-01-11T17:41:37.275Z,34.90
2019-01-11T17:44:05.009Z,30.60
2019-01-11T17:46:33.735Z,34.50
2019-01-11T17:49:01.887Z,34.17
2019-01-11T17:51:30.086Z,35.80
2019-01-11T17:53:57.718Z,27.83
2019-01-11T17:56:25.842Z,33.10
2019-01-11T17:58:53.760Z,31.97
2019-01-11T18:01:22.139Z,33.10
2019-01-11T18:03:50.368Z,32.17
2019-01-11T18:06:17.983Z,32.10
2019-01-11T18:08:46.111Z,27.97
2019-01-11T18:11:14.059Z,26.50
2019-01-11T18:13:42.045Z,26.17
2019-01-11T18:16:10.404Z,30.63
2019-01-11T18:18:38.440Z,30.20
2019-01-11T18:21:06.885Z,30.00
2019-01-11T18:23:34.557Z,26.73
2019-01-11T18:26:02.491Z,29.77
2019-01-11T18:28:30.725Z,28.60
2019-01-11T18:31:00.318Z,25.07
2019-01-11T18:33:28.246Z,29.90
2019-01-11T18:35:56.220Z,26.77
2019-01-11T18:38:24.191Z,35.00
2019-01-11T18:40:52.242Z,29.90
2019-01-11T18:43:20.329Z,26.70
2019-01-11T18:45:48.279Z,29.03
2019-01-11T18:48:18.630Z,29.70
2019-01-11T18:50:51.479Z,32.20
2019-01-11T18:53:19.344Z,26.53
2019-01-11T18:55:47.637Z,27.20
2019-01-11T18:58:18.502Z,25.33
2019-01-11T19:00:46.642Z,29.70
2019-01-11T19:03:14.561Z,25.97
2019-01-11T19:05:42.578Z,25.93
2019-01-11T19:08:10.558Z,27.53
2019-01-11T19:10:39.184Z,28.63
2019-01-11T19:13:09.449Z,31.67
2019-01-11T19:15:37.859Z,28.47
2019-01-11T19:18:06.329Z,34.30
2019-01-11T19:20:37.028Z,30.50
2019-01-11T19:23:07.270Z,29.20
2019-01-11T19:25:35.976Z,30.60
2019-01-11T19:28:03.760Z,32.93
2019-01-11T19:30:32.364Z,36.90
2019-01-11T19:33:00.774Z,36.13
2019-01-11T19:35:29.387Z,37.77
2019-01-11T19:37:59.023Z,37.30
2019-01-11T19:40:27.070Z,31.13
2019-01-11T19:42:55.807Z,37.03
2019-01-11T19:45:24.183Z,32.97
2019-01-11T19:47:52.764Z,38.60
2019-01-11T19:50:22.637Z,31.40
2019-01-11T19:52:50.948Z,35.93
2019-01-11T19:55:18.826Z,36.43
2019-01-11T19:57:46.557Z,33.50
2019-01-11T20:00:17.645Z,36.00
2019-01-11T20:02:46.057Z,35.27
2019-01-11T20:05:14.707Z,31.20
2019-01-11T20:07:43.033Z,25.40
2019-01-11T20:10:16.373Z,29.47
2019-01-11T20:12:44.631Z,23.07
2019-01-11T20:15:14.250Z,26.63
2019-01-11T20:17:42.758Z,31.93
2019-01-11T20:20:12.060Z,29.50
2019-01-11T20:22:40.192Z,27.90
2019-01-11T20:25:13.454Z,27.90
2019-01-11T20:27:41.527Z,27.60
2019-01-11T20:30:11.092Z,26.27
2019-01-11T20:32:41.187Z,31.47
2019-01-11T20:35:09.627Z,20.77
2019-01-11T20:37:37.422Z,24.77
2019-01-11T20:40:07.993Z,28.47
2019-01-11T20:42:37.894Z,27.17
2019-01-11T20:45:14.231Z,26.07
2019-01-11T20:47:42.706Z,25.53
2019-01-11T20:50:13.465Z,22.53
2019-01-11T20:52:42.315Z,28.63
2019-01-11T20:55:10.830Z,26.10
2019-01-11T20:57:39.988Z,26.53
2019-01-11T21:00:11.950Z,25.67
2019-01-11T21:02:39.955Z,25.93
2019-01-11T21:05:09.109Z,27.50
2019-01-11T21:07:36.828Z,21.47
2019-01-11T21:10:05.807Z,29.13
2019-01-11T21:12:34.173Z,25.47
2019-01-11T21:15:02.259Z,24.47
2019-01-11T21:17:31.862Z,21.03
2019-01-11T21:19:59.477Z,25.77
2019-01-11T21:22:27.259Z,23.23
2019-01-11T21:25:00.152Z,22.80
2019-01-11T21:27:25.440Z,23.50
2019-01-11T21:29:53.729Z,19.93
2019-01-11T21:32:21.674Z,22.47
2019-01-11T21:34:51.857Z,24.23
2019-01-11T21:37:19.445Z,22.40
2019-01-11T21:39:47.512Z,17.97
2019-01-11T21:42:19.196Z,19.17
2019-01-11T21:44:46.508Z,22.57
2019-01-11T21:47:14.755Z,19.43
2019-01-11T21:49:42.512Z,21.20
2019-01-11T21:52:10.489Z,21.83
2019-01-11T21:54:38.341Z,18.83
2019-01-11T21:57:07.003Z,19.90
2019-01-11T21:59:35.749Z,21.10
2019-01-11T22:02:03.893Z,19.60
2019-01-11T22:04:32.354Z,19.53
2019-01-11T22:07:00.293Z,21.60
2019-01-11T22:09:28.526Z,18.57
2019-01-11T22:11:56.093Z,17.47
2019-01-11T22:14:23.746Z,19.43
2019-01-11T22:16:51.326Z,21.40
2019-01-11T22:19:19.503Z,20.00
2019-01-11T22:21:47.064Z,23.20
2019-01-11T22:24:15.500Z,21.73
2019-01-11T22:26:43.062Z,19.77
2019-01-11T22:29:11.054Z,21.33
2019-01-11T22:31:39.509Z,18.57
2019-01-11T22:34:07.316Z,22.10
2019-01-11T22:36:35.289Z,21.43
2019-01-11T22:39:07.209Z,23.20
2019-01-11T22:41:34.909Z,19.63
2019-01-11T22:44:02.960Z,22.53
2019-01-11T22:46:33.357Z,24.47
2019-01-11T22:49:01.724Z,20.67
2019-01-11T22:51:29.349Z,26.83
2019-01-11T22:53:56.901Z,21.33
2019-01-11T22:56:25.169Z,20.87
2019-01-11T22:58:53.525Z,21.70
2019-01-11T23:01:45.275Z,22.20
2019-01-11T23:04:13.226Z,19.87
2019-01-11T23:07:18.600Z,22.00
2019-01-11T23:09:58.820Z,23.23
2019-01-11T23:13:02.251Z,23.27
2019-01-11T23:15:33.233Z,21.33
2019-01-11T23:18:28.059Z,18.87
2019-01-11T23:20:59.194Z,20.37
2019-01-11T23:23:26.638Z,22.20
2019-01-11T23:25:54.158Z,19.90
2019-01-11T23:28:22.019Z,21.90
2019-01-11T23:30:49.810Z,20.17
2019-01-11T23:33:17.821Z,19.90
2019-01-11T23:35:45.371Z,22.37
2019-01-11T23:38:13.210Z,20.53
2019-01-11T23:40:40.970Z,18.80
2019-01-11T23:43:08.875Z,18.93
2019-01-11T23:45:36.595Z,22.00
2019-01-11T23:48:04.269Z,20.47
2019-01-11T23:50:31.761Z,19.97
2019-01-11T23:52:59.910Z,18.27
2019-01-11T23:55:28.091Z,20.17
2019-01-11T23:57:55.686Z,20.70
